sensor_id;sensor_type;location;lat;lon;timestamp;P1;durP1;ratioP1;P2;durP2;ratioP2
57331;SDS011;43164;50.908;18.092;2024-02-23T00:00:31;7.30;;;3.90;;
57331;SDS011;43164;50.908;18.092;2024-02-23T00:02:59;6.60;;;3.60;;
57331;SDS011;43164;50.908;18.092;2024-02-23T00:05:30;8.10;;;4.30;;
57331;SDS011;43164;50.908;18.092;2024-02-23T00:08:10;7.90;;;4.40;;
57331;SDS011;43164;50.908;18.092;2024-02-23T00:13:11;8.00;;;4.10;;
57331;SDS011;43164;50.908;18.092;2024-02-23T00:15:42;8.60;;;4.50;;
57331;SDS011;43164;50.908;18.092;2024-02-23T00:18:27;7.80;;;4.40;;
57331;SDS011;43164;50.908;18.092;2024-02-23T00:20:59;7.50;;;3.90;;
57331;SDS011;43164;50.908;18.092;2024-02-23T00:23:28;8.60;;;4.60;;
57331;SDS011;43164;50.908;18.092;2024-02-23T00:25:56;8.10;;;4.50;;
57331;SDS011;43164;50.908;18.092;2024-02-23T00:28:24;8.40;;;4.00;;
57331;SDS011;43164;50.908;18.092;2024-02-23T00:30:52;7.90;;;4.40;;
57331;SDS011;43164;50.908;18.092;2024-02-23T00:33:20;7.60;;;4.30;;
57331;SDS011;43164;50.908;18.092;2024-02-23T00:35:47;6.50;;;3.70;;
57331;SDS011;43164;50.908;18.092;2024-02-23T00:38:15;7.70;;;4.20;;
57331;SDS011;43164;50.908;18.092;2024-02-23T00:40:43;7.00;;;3.90;;
57331;SDS011;43164;50.908;18.092;2024-02-23T00:43:13;6.60;;;4.20;;
57331;SDS011;43164;50.908;18.092;2024-02-23T00:45:41;7.10;;;4.00;;
57331;SDS011;43164;50.908;18.092;2024-02-23T00:48:08;7.20;;;3.90;;
57331;SDS011;43164;50.908;18.092;2024-02-23T00:50:36;7.10;;;4.10;;
57331;SDS011;43164;50.908;18.092;2024-02-23T00:53:04;6.30;;;3.40;;
57331;SDS011;43164;50.908;18.092;2024-02-23T00:55:31;6.60;;;3.10;;
57331;SDS011;43164;50.908;18.092;2024-02-23T00:57:59;7.10;;;3.10;;
57331;SDS011;43164;50.908;18.092;2024-02-23T01:00:27;4.90;;;2.80;;
57331;SDS011;43164;50.908;18.092;2024-02-23T01:02:54;5.40;;;2.50;;
57331;SDS011;43164;50.908;18.092;2024-02-23T01:05:22;6.30;;;3.10;;
57331;SDS011;43164;50.908;18.092;2024-02-23T01:07:49;5.70;;;3.00;;
57331;SDS011;43164;50.908;18.092;2024-02-23T01:10:16;5.80;;;2.80;;
57331;SDS011;43164;50.908;18.092;2024-02-23T01:12:44;5.70;;;2.90;;
57331;SDS011;43164;50.908;18.092;2024-02-23T01:15:12;5.30;;;2.70;;
57331;SDS011;43164;50.908;18.092;2024-02-23T01:17:40;5.80;;;2.80;;
57331;SDS011;43164;50.908;18.092;2024-02-23T01:20:08;4.50;;;2.70;;
57331;SDS011;43164;50.908;18.092;2024-02-23T01:22:36;6.00;;;3.00;;
57331;SDS011;43164;50.908;18.092;2024-02-23T01:25:06;4.90;;;2.40;;
57331;SDS011;43164;50.908;18.092;2024-02-23T01:27:32;4.90;;;2.40;;
57331;SDS011;43164;50.908;18.092;2024-02-23T01:30:00;5.20;;;2.90;;
57331;SDS011;43164;50.908;18.092;2024-02-23T01:32:29;5.00;;;2.80;;
57331;SDS011;43164;50.908;18.092;2024-02-23T01:34:58;5.50;;;2.90;;
57331;SDS011;43164;50.908;18.092;2024-02-23T01:37:26;6.80;;;3.20;;
57331;SDS011;43164;50.908;18.092;2024-02-23T01:39:53;6.70;;;3.50;;
57331;SDS011;43164;50.908;18.092;2024-02-23T01:42:21;5.30;;;2.90;;
57331;SDS011;43164;50.908;18.092;2024-02-23T01:44:50;5.00;;;3.10;;
57331;SDS011;43164;50.908;18.092;2024-02-23T01:47:18;5.70;;;3.50;;
57331;SDS011;43164;50.908;18.092;2024-02-23T01:49:46;7.00;;;3.60;;
57331;SDS011;43164;50.908;18.092;2024-02-23T01:52:18;7.30;;;3.70;;
57331;SDS011;43164;50.908;18.092;2024-02-23T01:54:46;6.50;;;3.60;;
57331;SDS011;43164;50.908;18.092;2024-02-23T01:57:17;6.60;;;3.80;;
57331;SDS011;43164;50.908;18.092;2024-02-23T01:59:45;7.00;;;3.30;;
57331;SDS011;43164;50.908;18.092;2024-02-23T02:02:13;7.30;;;4.10;;
57331;SDS011;43164;50.908;18.092;2024-02-23T02:04:41;8.00;;;3.90;;
57331;SDS011;43164;50.908;18.092;2024-02-23T02:07:11;6.90;;;4.00;;
57331;SDS011;43164;50.908;18.092;2024-02-23T02:09:39;7.70;;;4.20;;
57331;SDS011;43164;50.908;18.092;2024-02-23T02:12:07;8.20;;;4.10;;
57331;SDS011;43164;50.908;18.092;2024-02-23T02:14:36;7.70;;;4.20;;
57331;SDS011;43164;50.908;18.092;2024-02-23T02:17:03;6.60;;;3.60;;
57331;SDS011;43164;50.908;18.092;2024-02-23T02:19:31;7.10;;;3.40;;
57331;SDS011;43164;50.908;18.092;2024-02-23T02:21:58;7.10;;;3.70;;
57331;SDS011;43164;50.908;18.092;2024-02-23T02:24:26;7.00;;;3.50;;
57331;SDS011;43164;50.908;18.092;2024-02-23T02:26:55;8.60;;;4.20;;
57331;SDS011;43164;50.908;18.092;2024-02-23T02:29:22;8.30;;;3.70;;
57331;SDS011;43164;50.908;18.092;2024-02-23T02:31:50;6.50;;;3.80;;
57331;SDS011;43164;50.908;18.092;2024-02-23T02:34:17;8.60;;;4.40;;
57331;SDS011;43164;50.908;18.092;2024-02-23T02:36:46;6.40;;;3.60;;
57331;SDS011;43164;50.908;18.092;2024-02-23T02:39:13;7.00;;;3.90;;
57331;SDS011;43164;50.908;18.092;2024-02-23T02:41:42;7.00;;;4.00;;
57331;SDS011;43164;50.908;18.092;2024-02-23T02:44:09;7.20;;;3.70;;
57331;SDS011;43164;50.908;18.092;2024-02-23T02:46:38;7.40;;;3.90;;
57331;SDS011;43164;50.908;18.092;2024-02-23T02:49:05;7.70;;;3.90;;
57331;SDS011;43164;50.908;18.092;2024-02-23T02:51:33;7.00;;;3.50;;
57331;SDS011;43164;50.908;18.092;2024-02-23T02:54:01;7.10;;;3.80;;
57331;SDS011;43164;50.908;18.092;2024-02-23T02:56:30;7.10;;;3.80;;
57331;SDS011;43164;50.908;18.092;2024-02-23T02:58:58;8.80;;;4.00;;
57331;SDS011;43164;50.908;18.092;2024-02-23T03:01:25;8.10;;;4.00;;
57331;SDS011;43164;50.908;18.092;2024-02-23T03:03:53;7.60;;;3.70;;
57331;SDS011;43164;50.908;18.092;2024-02-23T03:06:20;8.30;;;4.00;;
57331;SDS011;43164;50.908;18.092;2024-02-23T03:08:47;6.00;;;3.20;;
57331;SDS011;43164;50.908;18.092;2024-02-23T03:11:14;8.20;;;3.80;;
57331;SDS011;43164;50.908;18.092;2024-02-23T03:13:42;7.30;;;3.40;;
57331;SDS011;43164;50.908;18.092;2024-02-23T03:16:16;6.70;;;3.40;;
57331;SDS011;43164;50.908;18.092;2024-02-23T03:18:44;7.10;;;3.70;;
57331;SDS011;43164;50.908;18.092;2024-02-23T03:21:12;6.10;;;3.00;;
57331;SDS011;43164;50.908;18.092;2024-02-23T03:23:42;6.30;;;3.40;;
57331;SDS011;43164;50.908;18.092;2024-02-23T03:26:11;6.20;;;3.20;;
57331;SDS011;43164;50.908;18.092;2024-02-23T03:28:39;6.70;;;3.30;;
57331;SDS011;43164;50.908;18.092;2024-02-23T03:31:07;6.60;;;3.20;;
57331;SDS011;43164;50.908;18.092;2024-02-23T03:33:34;6.50;;;3.10;;
57331;SDS011;43164;50.908;18.092;2024-02-23T03:36:02;6.50;;;3.10;;
57331;SDS011;43164;50.908;18.092;2024-02-23T03:38:29;7.30;;;3.20;;
57331;SDS011;43164;50.908;18.092;2024-02-23T03:40:57;4.70;;;2.90;;
57331;SDS011;43164;50.908;18.092;2024-02-23T03:43:24;5.60;;;2.90;;
57331;SDS011;43164;50.908;18.092;2024-02-23T03:45:52;5.50;;;2.80;;
57331;SDS011;43164;50.908;18.092;2024-02-23T03:48:19;7.30;;;3.20;;
57331;SDS011;43164;50.908;18.092;2024-02-23T03:50:47;6.50;;;3.10;;
57331;SDS011;43164;50.908;18.092;2024-02-23T03:53:14;6.80;;;3.00;;
57331;SDS011;43164;50.908;18.092;2024-02-23T03:55:42;7.00;;;3.10;;
57331;SDS011;43164;50.908;18.092;2024-02-23T03:58:11;5.40;;;2.80;;
57331;SDS011;43164;50.908;18.092;2024-02-23T04:00:37;5.60;;;3.00;;
57331;SDS011;43164;50.908;18.092;2024-02-23T04:03:05;5.30;;;2.90;;
57331;SDS011;43164;50.908;18.092;2024-02-23T04:05:32;5.50;;;2.90;;
57331;SDS011;43164;50.908;18.092;2024-02-23T04:08:00;6.40;;;2.80;;
57331;SDS011;43164;50.908;18.092;2024-02-23T04:10:27;4.70;;;2.70;;
57331;SDS011;43164;50.908;18.092;2024-02-23T04:12:54;6.60;;;3.20;;
57331;SDS011;43164;50.908;18.092;2024-02-23T04:18:30;5.50;;;2.50;;
57331;SDS011;43164;50.908;18.092;2024-02-23T04:21:04;5.40;;;2.80;;
57331;SDS011;43164;50.908;18.092;2024-02-23T04:23:33;5.60;;;2.80;;
57331;SDS011;43164;50.908;18.092;2024-02-23T04:26:02;6.60;;;2.80;;
57331;SDS011;43164;50.908;18.092;2024-02-23T04:28:31;6.40;;;2.80;;
57331;SDS011;43164;50.908;18.092;2024-02-23T04:31:00;7.30;;;3.20;;
57331;SDS011;43164;50.908;18.092;2024-02-23T04:33:27;8.40;;;2.90;;
57331;SDS011;43164;50.908;18.092;2024-02-23T04:35:54;6.00;;;2.70;;
57331;SDS011;43164;50.908;18.092;2024-02-23T04:38:22;6.90;;;3.00;;
57331;SDS011;43164;50.908;18.092;2024-02-23T04:40:52;6.80;;;2.90;;
57331;SDS011;43164;50.908;18.092;2024-02-23T04:43:19;5.90;;;2.80;;
57331;SDS011;43164;50.908;18.092;2024-02-23T04:45:49;5.40;;;3.10;;
57331;SDS011;43164;50.908;18.092;2024-02-23T04:48:18;6.00;;;2.70;;
57331;SDS011;43164;50.908;18.092;2024-02-23T04:50:46;5.90;;;2.60;;
57331;SDS011;43164;50.908;18.092;2024-02-23T04:53:13;6.30;;;2.90;;
57331;SDS011;43164;50.908;18.092;2024-02-23T04:55:42;5.10;;;2.60;;
57331;SDS011;43164;50.908;18.092;2024-02-23T04:58:10;5.40;;;2.80;;
57331;SDS011;43164;50.908;18.092;2024-02-23T05:00:42;5.60;;;2.60;;
57331;SDS011;43164;50.908;18.092;2024-02-23T05:03:09;5.10;;;2.70;;
57331;SDS011;43164;50.908;18.092;2024-02-23T05:05:39;8.00;;;3.00;;
57331;SDS011;43164;50.908;18.092;2024-02-23T05:08:06;5.10;;;2.80;;
57331;SDS011;43164;50.908;18.092;2024-02-23T05:10:37;5.20;;;2.60;;
57331;SDS011;43164;50.908;18.092;2024-02-23T05:13:05;7.60;;;2.70;;
57331;SDS011;43164;50.908;18.092;2024-02-23T05:15:32;5.60;;;2.50;;
57331;SDS011;43164;50.908;18.092;2024-02-23T05:18:01;7.50;;;3.10;;
57331;SDS011;43164;50.908;18.092;2024-02-23T05:20:28;6.20;;;2.80;;
57331;SDS011;43164;50.908;18.092;2024-02-23T05:22:59;4.80;;;2.50;;
57331;SDS011;43164;50.908;18.092;2024-02-23T05:25:28;4.90;;;2.80;;
57331;SDS011;43164;50.908;18.092;2024-02-23T05:27:57;5.40;;;2.40;;
57331;SDS011;43164;50.908;18.092;2024-02-23T05:30:25;6.20;;;2.50;;
57331;SDS011;43164;50.908;18.092;2024-02-23T05:32:53;5.30;;;2.40;;
57331;SDS011;43164;50.908;18.092;2024-02-23T05:35:23;6.40;;;2.90;;
57331;SDS011;43164;50.908;18.092;2024-02-23T05:37:50;7.20;;;2.90;;
57331;SDS011;43164;50.908;18.092;2024-02-23T05:40:20;5.20;;;2.50;;
57331;SDS011;43164;50.908;18.092;2024-02-23T05:42:48;5.50;;;2.50;;
57331;SDS011;43164;50.908;18.092;2024-02-23T05:45:15;5.80;;;2.40;;
57331;SDS011;43164;50.908;18.092;2024-02-23T05:47:44;5.60;;;2.60;;
57331;SDS011;43164;50.908;18.092;2024-02-23T05:50:13;6.40;;;3.10;;
57331;SDS011;43164;50.908;18.092;2024-02-23T05:52:42;5.50;;;2.60;;
57331;SDS011;43164;50.908;18.092;2024-02-23T05:55:11;5.60;;;2.90;;
57331;SDS011;43164;50.908;18.092;2024-02-23T05:57:49;6.00;;;2.80;;
57331;SDS011;43164;50.908;18.092;2024-02-23T06:00:19;5.70;;;2.60;;
57331;SDS011;43164;50.908;18.092;2024-02-23T06:09:36;7.40;;;3.10;;
57331;SDS011;43164;50.908;18.092;2024-02-23T06:12:07;5.90;;;2.90;;
57331;SDS011;43164;50.908;18.092;2024-02-23T06:14:44;4.80;;;2.50;;
57331;SDS011;43164;50.908;18.092;2024-02-23T06:17:16;6.20;;;2.90;;
57331;SDS011;43164;50.908;18.092;2024-02-23T06:22:45;6.60;;;3.20;;
57331;SDS011;43164;50.908;18.092;2024-02-23T06:25:19;5.00;;;2.60;;
57331;SDS011;43164;50.908;18.092;2024-02-23T06:27:55;4.70;;;2.60;;
57331;SDS011;43164;50.908;18.092;2024-02-23T06:30:23;5.90;;;2.70;;
57331;SDS011;43164;50.908;18.092;2024-02-23T06:33:03;5.20;;;2.80;;
57331;SDS011;43164;50.908;18.092;2024-02-23T06:35:48;4.70;;;2.40;;
57331;SDS011;43164;50.908;18.092;2024-02-23T06:38:16;7.50;;;3.10;;
57331;SDS011;43164;50.908;18.092;2024-02-23T06:40:56;5.50;;;2.50;;
57331;SDS011;43164;50.908;18.092;2024-02-23T06:49:35;9.20;;;4.00;;
57331;SDS011;43164;50.908;18.092;2024-02-23T06:52:02;8.50;;;4.20;;
57331;SDS011;43164;50.908;18.092;2024-02-23T06:54:38;5.90;;;3.00;;
57331;SDS011;43164;50.908;18.092;2024-02-23T07:00:22;7.00;;;3.50;;
57331;SDS011;43164;50.908;18.092;2024-02-23T07:02:51;5.90;;;3.40;;
57331;SDS011;43164;50.908;18.092;2024-02-23T07:08:15;6.10;;;2.90;;
57331;SDS011;43164;50.908;18.092;2024-02-23T07:10:46;6.60;;;3.00;;
57331;SDS011;43164;50.908;18.092;2024-02-23T07:13:15;5.90;;;2.80;;
57331;SDS011;43164;50.908;18.092;2024-02-23T07:15:44;8.70;;;3.90;;
57331;SDS011;43164;50.908;18.092;2024-02-23T07:18:13;9.50;;;3.60;;
57331;SDS011;43164;50.908;18.092;2024-02-23T07:20:42;6.50;;;3.00;;
57331;SDS011;43164;50.908;18.092;2024-02-23T07:23:11;6.30;;;3.10;;
57331;SDS011;43164;50.908;18.092;2024-02-23T07:25:44;7.10;;;3.30;;
57331;SDS011;43164;50.908;18.092;2024-02-23T07:28:16;9.90;;;5.30;;
57331;SDS011;43164;50.908;18.092;2024-02-23T07:30:46;8.70;;;4.50;;
57331;SDS011;43164;50.908;18.092;2024-02-23T07:33:24;6.80;;;3.00;;
57331;SDS011;43164;50.908;18.092;2024-02-23T07:35:54;8.80;;;2.90;;
57331;SDS011;43164;50.908;18.092;2024-02-23T07:38:23;6.50;;;2.60;;
57331;SDS011;43164;50.908;18.092;2024-02-23T07:41:00;5.80;;;2.40;;
57331;SDS011;43164;50.908;18.092;2024-02-23T07:43:29;6.20;;;2.40;;
57331;SDS011;43164;50.908;18.092;2024-02-23T07:45:57;6.00;;;3.00;;
57331;SDS011;43164;50.908;18.092;2024-02-23T07:48:25;8.10;;;4.00;;
57331;SDS011;43164;50.908;18.092;2024-02-23T07:50:53;7.40;;;2.90;;
57331;SDS011;43164;50.908;18.092;2024-02-23T07:53:21;7.80;;;2.80;;
57331;SDS011;43164;50.908;18.092;2024-02-23T07:55:49;4.70;;;2.40;;
57331;SDS011;43164;50.908;18.092;2024-02-23T07:58:17;6.50;;;2.40;;
57331;SDS011;43164;50.908;18.092;2024-02-23T08:00:46;7.30;;;3.50;;
57331;SDS011;43164;50.908;18.092;2024-02-23T08:03:13;9.50;;;4.50;;
57331;SDS011;43164;50.908;18.092;2024-02-23T08:05:42;6.00;;;3.10;;
57331;SDS011;43164;50.908;18.092;2024-02-23T08:08:10;8.50;;;3.60;;
57331;SDS011;43164;50.908;18.092;2024-02-23T08:10:39;5.90;;;3.00;;
57331;SDS011;43164;50.908;18.092;2024-02-23T08:13:07;7.90;;;3.30;;
57331;SDS011;43164;50.908;18.092;2024-02-23T08:15:37;8.20;;;4.20;;
57331;SDS011;43164;50.908;18.092;2024-02-23T08:18:05;6.40;;;3.00;;
57331;SDS011;43164;50.908;18.092;2024-02-23T08:20:33;5.70;;;2.50;;
57331;SDS011;43164;50.908;18.092;2024-02-23T08:23:01;6.70;;;3.30;;
57331;SDS011;43164;50.908;18.092;2024-02-23T08:25:30;10.70;;;4.90;;
57331;SDS011;43164;50.908;18.092;2024-02-23T08:30:48;5.80;;;2.50;;
57331;SDS011;43164;50.908;18.092;2024-02-23T08:33:23;6.70;;;2.70;;
57331;SDS011;43164;50.908;18.092;2024-02-23T08:35:51;4.90;;;2.20;;
57331;SDS011;43164;50.908;18.092;2024-02-23T08:38:18;7.20;;;3.00;;
57331;SDS011;43164;50.908;18.092;2024-02-23T08:40:45;4.70;;;2.30;;
57331;SDS011;43164;50.908;18.092;2024-02-23T08:43:13;5.10;;;2.10;;
57331;SDS011;43164;50.908;18.092;2024-02-23T08:45:44;6.30;;;2.10;;
57331;SDS011;43164;50.908;18.092;2024-02-23T08:51:24;8.30;;;3.90;;
57331;SDS011;43164;50.908;18.092;2024-02-23T08:53:57;10.40;;;4.90;;
57331;SDS011;43164;50.908;18.092;2024-02-23T08:56:37;8.70;;;4.10;;
57331;SDS011;43164;50.908;18.092;2024-02-23T08:59:54;10.50;;;4.60;;
57331;SDS011;43164;50.908;18.092;2024-02-23T09:02:26;10.50;;;4.60;;
57331;SDS011;43164;50.908;18.092;2024-02-23T09:04:58;9.20;;;4.10;;
57331;SDS011;43164;50.908;18.092;2024-02-23T09:08:08;11.30;;;5.20;;
57331;SDS011;43164;50.908;18.092;2024-02-23T09:10:38;9.90;;;4.60;;
57331;SDS011;43164;50.908;18.092;2024-02-23T09:13:06;5.00;;;2.10;;
57331;SDS011;43164;50.908;18.092;2024-02-23T09:21:50;10.20;;;4.60;;
57331;SDS011;43164;50.908;18.092;2024-02-23T09:24:23;8.00;;;2.50;;
57331;SDS011;43164;50.908;18.092;2024-02-23T09:26:50;16.10;;;6.30;;
57331;SDS011;43164;50.908;18.092;2024-02-23T09:29:18;5.80;;;2.10;;
57331;SDS011;43164;50.908;18.092;2024-02-23T09:31:46;7.50;;;2.60;;
57331;SDS011;43164;50.908;18.092;2024-02-23T09:34:13;6.30;;;2.40;;
57331;SDS011;43164;50.908;18.092;2024-02-23T09:36:42;10.10;;;4.50;;
57331;SDS011;43164;50.908;18.092;2024-02-23T09:39:10;6.20;;;2.30;;
57331;SDS011;43164;50.908;18.092;2024-02-23T09:41:38;7.10;;;2.30;;
57331;SDS011;43164;50.908;18.092;2024-02-23T09:44:05;11.90;;;4.90;;
57331;SDS011;43164;50.908;18.092;2024-02-23T09:49:22;5.50;;;1.80;;
57331;SDS011;43164;50.908;18.092;2024-02-23T09:52:13;3.90;;;1.20;;
57331;SDS011;43164;50.908;18.092;2024-02-23T09:54:50;3.30;;;1.00;;
57331;SDS011;43164;50.908;18.092;2024-02-23T09:57:17;3.00;;;1.00;;
57331;SDS011;43164;50.908;18.092;2024-02-23T09:59:46;2.60;;;1.00;;
57331;SDS011;43164;50.908;18.092;2024-02-23T10:02:16;2.60;;;1.00;;
57331;SDS011;43164;50.908;18.092;2024-02-23T10:04:44;2.50;;;1.00;;
57331;SDS011;43164;50.908;18.092;2024-02-23T10:07:14;3.40;;;1.20;;
57331;SDS011;43164;50.908;18.092;2024-02-23T10:09:47;4.90;;;1.10;;
57331;SDS011;43164;50.908;18.092;2024-02-23T10:12:16;4.10;;;1.40;;
57331;SDS011;43164;50.908;18.092;2024-02-23T10:14:51;5.10;;;1.50;;
57331;SDS011;43164;50.908;18.092;2024-02-23T10:17:24;3.50;;;0.90;;
57331;SDS011;43164;50.908;18.092;2024-02-23T10:19:52;3.20;;;1.00;;
57331;SDS011;43164;50.908;18.092;2024-02-23T10:22:21;2.10;;;0.70;;
57331;SDS011;43164;50.908;18.092;2024-02-23T10:24:53;3.00;;;0.80;;
57331;SDS011;43164;50.908;18.092;2024-02-23T10:27:21;3.20;;;1.00;;
57331;SDS011;43164;50.908;18.092;2024-02-23T10:29:52;4.50;;;0.90;;
57331;SDS011;43164;50.908;18.092;2024-02-23T10:32:20;2.70;;;0.90;;
57331;SDS011;43164;50.908;18.092;2024-02-23T10:34:52;2.30;;;0.80;;
57331;SDS011;43164;50.908;18.092;2024-02-23T10:37:20;1.90;;;0.80;;
57331;SDS011;43164;50.908;18.092;2024-02-23T10:39:50;2.70;;;1.00;;
57331;SDS011;43164;50.908;18.092;2024-02-23T10:42:33;3.20;;;0.80;;
57331;SDS011;43164;50.908;18.092;2024-02-23T10:45:01;2.90;;;0.90;;
57331;SDS011;43164;50.908;18.092;2024-02-23T10:47:30;3.00;;;1.00;;
57331;SDS011;43164;50.908;18.092;2024-02-23T10:49:59;2.70;;;0.70;;
57331;SDS011;43164;50.908;18.092;2024-02-23T10:52:29;2.50;;;0.70;;
57331;SDS011;43164;50.908;18.092;2024-02-23T10:54:57;3.60;;;0.80;;
57331;SDS011;43164;50.908;18.092;2024-02-23T10:57:32;1.80;;;0.50;;
57331;SDS011;43164;50.908;18.092;2024-02-23T11:00:02;2.10;;;0.50;;
57331;SDS011;43164;50.908;18.092;2024-02-23T11:02:46;2.40;;;0.70;;
57331;SDS011;43164;50.908;18.092;2024-02-23T11:05:19;1.50;;;0.50;;
57331;SDS011;43164;50.908;18.092;2024-02-23T11:07:47;2.40;;;0.50;;
57331;SDS011;43164;50.908;18.092;2024-02-23T11:13:10;2.10;;;0.60;;
57331;SDS011;43164;50.908;18.092;2024-02-23T11:15:41;1.80;;;0.60;;
57331;SDS011;43164;50.908;18.092;2024-02-23T11:18:24;1.40;;;0.40;;
57331;SDS011;43164;50.908;18.092;2024-02-23T11:20:58;1.90;;;0.40;;
57331;SDS011;43164;50.908;18.092;2024-02-23T11:23:27;2.90;;;0.60;;
57331;SDS011;43164;50.908;18.092;2024-02-23T11:26:09;3.90;;;0.60;;
57331;SDS011;43164;50.908;18.092;2024-02-23T11:28:46;1.80;;;0.60;;
57331;SDS011;43164;50.908;18.092;2024-02-23T11:31:15;1.70;;;0.60;;
57331;SDS011;43164;50.908;18.092;2024-02-23T11:33:53;4.30;;;0.60;;
57331;SDS011;43164;50.908;18.092;2024-02-23T11:36:24;2.30;;;0.60;;
57331;SDS011;43164;50.908;18.092;2024-02-23T11:39:00;3.80;;;0.70;;
57331;SDS011;43164;50.908;18.092;2024-02-23T11:41:27;1.90;;;0.60;;
57331;SDS011;43164;50.908;18.092;2024-02-23T11:43:56;1.80;;;0.60;;
57331;SDS011;43164;50.908;18.092;2024-02-23T11:46:26;2.50;;;0.60;;
57331;SDS011;43164;50.908;18.092;2024-02-23T11:48:53;2.40;;;0.60;;
57331;SDS011;43164;50.908;18.092;2024-02-23T11:51:21;2.10;;;0.50;;
57331;SDS011;43164;50.908;18.092;2024-02-23T11:53:50;2.20;;;0.50;;
57331;SDS011;43164;50.908;18.092;2024-02-23T11:56:18;2.70;;;0.60;;
57331;SDS011;43164;50.908;18.092;2024-02-23T11:58:46;0.80;;;0.40;;
57331;SDS011;43164;50.908;18.092;2024-02-23T12:01:14;2.80;;;0.60;;
57331;SDS011;43164;50.908;18.092;2024-02-23T12:03:42;1.30;;;0.50;;
57331;SDS011;43164;50.908;18.092;2024-02-23T12:06:10;1.90;;;0.60;;
57331;SDS011;43164;50.908;18.092;2024-02-23T12:08:39;4.70;;;0.60;;
57331;SDS011;43164;50.908;18.092;2024-02-23T12:11:08;1.60;;;0.50;;
57331;SDS011;43164;50.908;18.092;2024-02-23T12:13:36;1.90;;;0.40;;
57331;SDS011;43164;50.908;18.092;2024-02-23T12:16:07;1.50;;;0.50;;
57331;SDS011;43164;50.908;18.092;2024-02-23T12:18:36;1.90;;;0.50;;
57331;SDS011;43164;50.908;18.092;2024-02-23T12:21:06;1.50;;;0.50;;
57331;SDS011;43164;50.908;18.092;2024-02-23T12:23:40;1.30;;;0.40;;
57331;SDS011;43164;50.908;18.092;2024-02-23T12:26:10;2.60;;;0.50;;
57331;SDS011;43164;50.908;18.092;2024-02-23T12:28:40;2.00;;;0.50;;
57331;SDS011;43164;50.908;18.092;2024-02-23T12:31:08;1.40;;;0.40;;
57331;SDS011;43164;50.908;18.092;2024-02-23T12:33:40;2.30;;;0.50;;
57331;SDS011;43164;50.908;18.092;2024-02-23T12:36:08;1.20;;;0.30;;
57331;SDS011;43164;50.908;18.092;2024-02-23T12:38:37;2.60;;;0.50;;
57331;SDS011;43164;50.908;18.092;2024-02-23T12:41:04;1.00;;;0.30;;
57331;SDS011;43164;50.908;18.092;2024-02-23T12:43:31;1.30;;;0.30;;
57331;SDS011;43164;50.908;18.092;2024-02-23T12:45:58;2.10;;;0.50;;
57331;SDS011;43164;50.908;18.092;2024-02-23T12:48:26;2.40;;;0.30;;
57331;SDS011;43164;50.908;18.092;2024-02-23T12:50:53;1.60;;;0.40;;
57331;SDS011;43164;50.908;18.092;2024-02-23T12:53:39;1.90;;;0.40;;
57331;SDS011;43164;50.908;18.092;2024-02-23T12:56:07;1.60;;;0.40;;
57331;SDS011;43164;50.908;18.092;2024-02-23T12:58:40;3.20;;;0.60;;
57331;SDS011;43164;50.908;18.092;2024-02-23T13:01:10;1.50;;;0.40;;
57331;SDS011;43164;50.908;18.092;2024-02-23T13:03:48;3.50;;;0.40;;
57331;SDS011;43164;50.908;18.092;2024-02-23T13:06:21;3.00;;;0.60;;
57331;SDS011;43164;50.908;18.092;2024-02-23T13:09:05;2.20;;;0.40;;
57331;SDS011;43164;50.908;18.092;2024-02-23T13:11:37;1.30;;;0.40;;
57331;SDS011;43164;50.908;18.092;2024-02-23T13:14:06;2.80;;;0.50;;
57331;SDS011;43164;50.908;18.092;2024-02-23T13:16:38;1.90;;;0.60;;
57331;SDS011;43164;50.908;18.092;2024-02-23T13:19:07;1.80;;;0.50;;
57331;SDS011;43164;50.908;18.092;2024-02-23T13:21:35;2.60;;;0.80;;
57331;SDS011;43164;50.908;18.092;2024-02-23T13:24:02;4.50;;;0.90;;
57331;SDS011;43164;50.908;18.092;2024-02-23T13:26:43;1.90;;;0.70;;
57331;SDS011;43164;50.908;18.092;2024-02-23T13:29:14;3.00;;;0.90;;
57331;SDS011;43164;50.908;18.092;2024-02-23T13:31:41;3.30;;;0.90;;
57331;SDS011;43164;50.908;18.092;2024-02-23T13:34:09;4.90;;;1.20;;
57331;SDS011;43164;50.908;18.092;2024-02-23T13:36:37;5.10;;;1.60;;
57331;SDS011;43164;50.908;18.092;2024-02-23T13:39:05;7.40;;;2.20;;
57331;SDS011;43164;50.908;18.092;2024-02-23T13:41:33;8.30;;;2.90;;
57331;SDS011;43164;50.908;18.092;2024-02-23T13:44:01;8.60;;;4.00;;
57331;SDS011;43164;50.908;18.092;2024-02-23T13:46:29;12.40;;;5.40;;
57331;SDS011;43164;50.908;18.092;2024-02-23T13:49:04;7.00;;;2.10;;
57331;SDS011;43164;50.908;18.092;2024-02-23T13:51:31;7.50;;;2.40;;
57331;SDS011;43164;50.908;18.092;2024-02-23T13:53:59;9.20;;;3.10;;
57331;SDS011;43164;50.908;18.092;2024-02-23T13:56:27;7.60;;;2.70;;
57331;SDS011;43164;50.908;18.092;2024-02-23T13:58:57;5.00;;;2.00;;
57331;SDS011;43164;50.908;18.092;2024-02-23T14:01:37;2.70;;;0.70;;
57331;SDS011;43164;50.908;18.092;2024-02-23T14:04:05;1.90;;;0.50;;
57331;SDS011;43164;50.908;18.092;2024-02-23T14:06:35;2.30;;;0.50;;
57331;SDS011;43164;50.908;18.092;2024-02-23T14:09:03;1.80;;;0.50;;
57331;SDS011;43164;50.908;18.092;2024-02-23T14:11:30;0.80;;;0.40;;
57331;SDS011;43164;50.908;18.092;2024-02-23T14:14:08;1.50;;;0.40;;
57331;SDS011;43164;50.908;18.092;2024-02-23T14:16:35;3.30;;;0.40;;
57331;SDS011;43164;50.908;18.092;2024-02-23T14:19:03;2.80;;;0.40;;
57331;SDS011;43164;50.908;18.092;2024-02-23T14:21:44;2.60;;;0.30;;
57331;SDS011;43164;50.908;18.092;2024-02-23T14:24:11;1.40;;;0.30;;
57331;SDS011;43164;50.908;18.092;2024-02-23T14:26:40;0.90;;;0.30;;
57331;SDS011;43164;50.908;18.092;2024-02-23T14:29:08;2.00;;;0.40;;
57331;SDS011;43164;50.908;18.092;2024-02-23T14:31:44;1.50;;;0.40;;
57331;SDS011;43164;50.908;18.092;2024-02-23T14:34:13;1.10;;;0.30;;
57331;SDS011;43164;50.908;18.092;2024-02-23T14:36:47;0.90;;;0.40;;
57331;SDS011;43164;50.908;18.092;2024-02-23T14:39:16;1.30;;;0.40;;
57331;SDS011;43164;50.908;18.092;2024-02-23T14:41:47;2.20;;;0.30;;
57331;SDS011;43164;50.908;18.092;2024-02-23T14:44:17;3.90;;;0.50;;
57331;SDS011;43164;50.908;18.092;2024-02-23T14:46:49;2.60;;;0.50;;
57331;SDS011;43164;50.908;18.092;2024-02-23T14:51:54;1.70;;;0.50;;
57331;SDS011;43164;50.908;18.092;2024-02-23T14:54:42;6.00;;;3.00;;
57331;SDS011;43164;50.908;18.092;2024-02-23T14:57:17;3.70;;;0.60;;
57331;SDS011;43164;50.908;18.092;2024-02-23T15:02:25;15.30;;;10.20;;
57331;SDS011;43164;50.908;18.092;2024-02-23T15:04:56;18.60;;;14.60;;
57331;SDS011;43164;50.908;18.092;2024-02-23T15:07:31;13.30;;;7.90;;
57331;SDS011;43164;50.908;18.092;2024-02-23T15:10:02;10.40;;;5.70;;
57331;SDS011;43164;50.908;18.092;2024-02-23T15:12:35;5.30;;;1.70;;
57331;SDS011;43164;50.908;18.092;2024-02-23T15:15:08;2.80;;;0.90;;
57331;SDS011;43164;50.908;18.092;2024-02-23T15:17:39;2.80;;;0.90;;
57331;SDS011;43164;50.908;18.092;2024-02-23T15:20:10;2.80;;;0.60;;
57331;SDS011;43164;50.908;18.092;2024-02-23T15:22:55;1.30;;;0.50;;
57331;SDS011;43164;50.908;18.092;2024-02-23T15:25:33;3.20;;;0.70;;
57331;SDS011;43164;50.908;18.092;2024-02-23T15:28:09;4.60;;;1.70;;
57331;SDS011;43164;50.908;18.092;2024-02-23T15:30:37;5.10;;;1.60;;
57331;SDS011;43164;50.908;18.092;2024-02-23T15:33:05;6.30;;;2.40;;
57331;SDS011;43164;50.908;18.092;2024-02-23T15:35:37;5.00;;;1.50;;
57331;SDS011;43164;50.908;18.092;2024-02-23T15:38:13;4.00;;;0.90;;
57331;SDS011;43164;50.908;18.092;2024-02-23T15:40:48;2.20;;;0.80;;